Time;durP1;ratioP1;P1;durP2;ratioP2;P2;SDS_P1;SDS_P2;PMS_P1;PMS_P2;Temp;Humidity;BMP_temperature;BMP_pressure;BME280_temperature;BME280_humidity;BME280_pressure;Samples;Min_cycle;Max_cycle;Signal;HPM_P1;HPM_P2
2023/09/03 00:02:11;;;;;;;8.20;5.15;;;;;;;;;;5021175;28;20490;-58
2023/09/03 00:04:36;;;;;;;5.93;4.27;;;;;;;;;;5023222;28;20391;-59
2023/09/03 00:07:01;;;;;;;7.67;4.77;;;;;;;;;;5033831;28;20415;-59
2023/09/03 00:09:27;;;;;;;7.90;4.27;;;;;;;;;;5035341;28;20381;-58
2023/09/03 00:11:52;;;;;;;8.20;4.50;;;;;;;;;;5032615;28;20530;-58
2023/09/03 00:14:17;;;;;;;8.00;4.80;;;;;;;;;;5034058;28;20401;-58
2023/09/03 00:16:42;;;;;;;6.97;4.20;;;;;;;;;;5033043;28;20438;-59
2023/09/03 00:19:08;;;;;;;7.27;4.03;;;;;;;;;;5028255;28;21048;-58
2023/09/03 00:21:34;;;;;;;7.72;4.80;;;;;;;;;;5036374;28;20403;-58
2023/09/03 00:23:59;;;;;;;7.00;4.60;;;;;;;;;;5036564;28;20417;-58
2023/09/03 00:26:26;;;;;;;8.80;4.33;;;;;;;;;;5029411;28;20394;-58
2023/09/03 00:28:51;;;;;;;5.72;3.90;;;;;;;;;;5030452;28;20413;-58
2023/09/03 00:31:17;;;;;;;7.77;4.60;;;;;;;;;;5035157;28;20433;-58
2023/09/03 00:33:43;;;;;;;7.45;4.47;;;;;;;;;;5034728;28;20896;-59
2023/09/03 00:36:09;;;;;;;8.10;4.80;;;;;;;;;;5030870;28;21450;-59
2023/09/03 00:38:34;;;;;;;7.13;4.70;;;;;;;;;;5032731;28;20453;-58
2023/09/03 00:41:00;;;;;;;7.53;4.50;;;;;;;;;;5031788;28;20391;-58
2023/09/03 00:43:26;;;;;;;6.60;4.40;;;;;;;;;;5019755;28;20407;-58
2023/09/03 00:45:51;;;;;;;7.97;4.30;;;;;;;;;;5023101;28;20419;-58
2023/09/03 00:48:18;;;;;;;7.20;4.17;;;;;;;;;;5023169;28;20410;-58
2023/09/03 00:50:43;;;;;;;7.32;4.72;;;;;;;;;;5028112;28;20514;-58
2023/09/03 00:53:09;;;;;;;6.73;4.83;;;;;;;;;;5030893;28;20708;-58
2023/09/03 00:55:34;;;;;;;8.10;5.73;;;;;;;;;;5037406;28;20503;-59
2023/09/03 00:58:00;;;;;;;8.30;5.45;;;;;;;;;;5035453;28;20409;-59
2023/09/03 01:00:25;;;;;;;7.57;5.10;;;;;;;;;;5021748;28;20891;-58
2023/09/03 01:02:52;;;;;;;12.33;6.37;;;;;;;;;;5027450;28;20794;-58
2023/09/03 01:05:17;;;;;;;8.40;6.20;;;;;;;;;;5040296;28;20409;-58
2023/09/03 01:07:43;;;;;;;8.87;5.57;;;;;;;;;;5028209;28;20852;-58
2023/09/03 01:10:08;;;;;;;9.23;5.80;;;;;;;;;;5020822;28;20810;-58
2023/09/03 01:12:52;;;;;;;7.33;5.37;;;;;;;;;;5023438;28;20471;-58
2023/09/03 01:15:19;;;;;;;10.68;5.82;;;;;;;;;;5022356;28;20430;-58
2023/09/03 01:17:47;;;;;;;9.30;5.10;;;;;;;;;;5018594;28;20501;-58
2023/09/03 01:20:15;;;;;;;6.50;4.60;;;;;;;;;;5025153;28;20606;-58
2023/09/03 01:22:56;;;;;;;7.28;4.85;;;;;;;;;;5028299;28;20723;-58
2023/09/03 01:25:40;;;;;;;9.73;5.38;;;;;;;;;;5038408;28;20466;-58
2023/09/03 01:28:12;;;;;;;8.48;4.38;;;;;;;;;;5026214;28;20792;-59
2023/09/03 01:30:37;;;;;;;8.33;4.50;;;;;;;;;;5028003;28;20409;-58
2023/09/03 01:33:03;;;;;;;9.33;5.70;;;;;;;;;;5034677;28;20776;-59
2023/09/03 01:35:30;;;;;;;9.52;5.82;;;;;;;;;;5027600;28;20413;-58
2023/09/03 01:37:56;;;;;;;8.32;5.80;;;;;;;;;;5029395;28;20407;-59
2023/09/03 01:40:21;;;;;;;9.73;6.77;;;;;;;;;;5021600;28;20881;-58
2023/09/03 01:42:46;;;;;;;9.00;6.17;;;;;;;;;;5021785;28;20806;-59
2023/09/03 01:45:11;;;;;;;8.30;6.00;;;;;;;;;;5016838;28;20436;-58
2023/09/03 01:47:41;;;;;;;11.43;7.00;;;;;;;;;;5036128;28;20398;-58
2023/09/03 01:50:08;;;;;;;10.90;7.20;;;;;;;;;;5040305;28;20397;-58
2023/09/03 01:52:38;;;;;;;11.57;6.63;;;;;;;;;;5039831;28;20949;-58
2023/09/03 01:55:05;;;;;;;10.88;7.03;;;;;;;;;;5039752;28;20490;-59
2023/09/03 01:57:32;;;;;;;11.77;6.50;;;;;;;;;;5042051;28;20476;-59
2023/09/03 01:59:58;;;;;;;12.70;8.10;;;;;;;;;;5041500;28;20908;-59
2023/09/03 02:02:24;;;;;;;12.95;8.70;;;;;;;;;;5037122;28;20409;-58
2023/09/03 02:04:49;;;;;;;12.63;8.73;;;;;;;;;;5042496;28;20961;-58
2023/09/03 02:07:15;;;;;;;11.27;8.15;;;;;;;;;;5042605;28;20892;-58
2023/09/03 02:09:40;;;;;;;10.27;7.17;;;;;;;;;;5038840;28;20475;-58
2023/09/03 02:12:06;;;;;;;11.30;8.07;;;;;;;;;;5041561;28;20458;-58
2023/09/03 02:14:31;;;;;;;11.07;8.10;;;;;;;;;;5041927;28;20403;-58
2023/09/03 02:16:57;;;;;;;12.93;8.25;;;;;;;;;;5040584;28;20409;-59
2023/09/03 02:19:22;;;;;;;10.60;7.68;;;;;;;;;;5039063;28;20401;-58
2023/09/03 02:21:48;;;;;;;10.47;7.90;;;;;;;;;;5043560;28;20401;-58
2023/09/03 02:24:13;;;;;;;12.40;9.00;;;;;;;;;;5049536;28;20401;-59
2023/09/03 02:26:40;;;;;;;11.87;9.20;;;;;;;;;;5042890;28;20486;-58
2023/09/03 02:29:05;;;;;;;10.15;7.88;;;;;;;;;;5043866;28;20401;-59
2023/09/03 02:31:30;;;;;;;10.00;7.27;;;;;;;;;;5042232;28;20475;-59
2023/09/03 02:33:55;;;;;;;10.27;8.30;;;;;;;;;;5049464;28;20412;-58
2023/09/03 02:36:21;;;;;;;12.03;8.10;;;;;;;;;;5038153;28;20464;-59
2023/09/03 02:38:46;;;;;;;10.60;8.40;;;;;;;;;;5045398;28;20410;-58
2023/09/03 02:41:11;;;;;;;11.13;8.10;;;;;;;;;;5049265;28;20410;-58
2023/09/03 02:43:36;;;;;;;11.53;7.97;;;;;;;;;;5042733;28;20401;-58
2023/09/03 02:46:02;;;;;;;8.97;7.13;;;;;;;;;;5034561;28;20403;-59
2023/09/03 02:48:27;;;;;;;10.30;6.80;;;;;;;;;;5026397;28;20410;-58
2023/09/03 02:50:52;;;;;;;9.33;6.70;;;;;;;;;;5037614;28;20422;-58
2023/09/03 02:53:17;;;;;;;11.57;7.57;;;;;;;;;;5031152;28;20409;-59
2023/09/03 02:55:43;;;;;;;10.13;7.10;;;;;;;;;;5028167;28;20494;-58
2023/09/03 02:58:08;;;;;;;10.90;7.00;;;;;;;;;;5031150;28;20414;-59
2023/09/03 03:00:34;;;;;;;10.27;7.07;;;;;;;;;;5040381;28;20409;-59
2023/09/03 03:02:59;;;;;;;9.85;7.47;;;;;;;;;;5037527;28;20445;-59
2023/09/03 03:05:24;;;;;;;11.23;7.50;;;;;;;;;;5035727;28;20383;-59
2023/09/03 03:07:49;;;;;;;9.83;7.07;;;;;;;;;;5029880;28;20443;-59
2023/09/03 03:10:15;;;;;;;10.67;7.77;;;;;;;;;;5025002;28;20410;-58
2023/09/03 03:12:42;;;;;;;12.57;7.50;;;;;;;;;;5026556;28;20524;-58
2023/09/03 03:15:07;;;;;;;11.27;7.55;;;;;;;;;;5023303;28;20948;-59
2023/09/03 03:17:33;;;;;;;10.70;7.38;;;;;;;;;;5027666;28;20397;-59
2023/09/03 03:19:58;;;;;;;10.00;7.20;;;;;;;;;;5037988;28;20409;-59
2023/09/03 03:22:23;;;;;;;11.25;7.40;;;;;;;;;;5033519;28;20521;-58
2023/09/03 03:24:49;;;;;;;11.23;6.87;;;;;;;;;;5029371;28;20417;-58
2023/09/03 03:27:14;;;;;;;11.07;7.00;;;;;;;;;;5027058;28;20480;-58
2023/09/03 03:29:39;;;;;;;10.77;6.77;;;;;;;;;;5031836;28;20422;-58
2023/09/03 03:32:07;;;;;;;12.37;7.23;;;;;;;;;;5030752;28;20789;-59
2023/09/03 03:34:32;;;;;;;13.50;8.17;;;;;;;;;;5035795;28;20432;-58
2023/09/03 03:36:57;;;;;;;10.43;7.30;;;;;;;;;;5036904;28;20408;-58
2023/09/03 03:39:23;;;;;;;13.53;7.57;;;;;;;;;;5024391;28;20797;-59
2023/09/03 03:41:48;;;;;;;9.17;7.30;;;;;;;;;;5022349;28;20426;-59
2023/09/03 03:44:13;;;;;;;11.03;7.60;;;;;;;;;;5021506;28;20426;-58
2023/09/03 03:46:38;;;;;;;10.00;7.97;;;;;;;;;;5025640;28;20402;-58
2023/09/03 03:49:04;;;;;;;12.40;9.00;;;;;;;;;;5028578;28;20411;-59
2023/09/03 03:51:30;;;;;;;10.57;8.05;;;;;;;;;;5036770;28;20409;-59
2023/09/03 03:53:55;;;;;;;10.60;7.50;;;;;;;;;;5036737;28;20415;-59
2023/09/03 03:56:20;;;;;;;10.40;8.03;;;;;;;;;;5030864;28;20391;-59
2023/09/03 03:58:46;;;;;;;11.03;8.10;;;;;;;;;;5031201;28;20401;-59
2023/09/03 04:01:15;;;;;;;9.90;7.67;;;;;;;;;;5034934;28;21040;-59
2023/09/03 04:03:42;;;;;;;13.35;9.10;;;;;;;;;;5034800;28;21363;-59
2023/09/03 04:06:08;;;;;;;10.90;7.60;;;;;;;;;;5030524;28;20501;-59
2023/09/03 04:08:34;;;;;;;10.43;7.90;;;;;;;;;;5033667;28;20812;-59
2023/09/03 04:11:01;;;;;;;11.87;7.80;;;;;;;;;;5032950;28;20423;-59
2023/09/03 04:13:26;;;;;;;10.77;7.80;;;;;;;;;;5029035;28;20399;-59
2023/09/03 04:15:52;;;;;;;10.97;8.77;;;;;;;;;;5031264;28;20407;-59
2023/09/03 04:18:17;;;;;;;10.10;7.57;;;;;;;;;;5034502;28;20419;-59
2023/09/03 04:20:43;;;;;;;11.70;7.87;;;;;;;;;;5035424;28;20401;-59
2023/09/03 04:23:08;;;;;;;12.10;8.33;;;;;;;;;;5033282;28;21207;-59
2023/09/03 04:25:33;;;;;;;10.77;8.37;;;;;;;;;;5039819;28;20392;-59
2023/09/03 04:27:58;;;;;;;10.90;8.23;;;;;;;;;;5032333;28;20436;-59
2023/09/03 04:30:24;;;;;;;11.70;8.37;;;;;;;;;;5023288;28;20485;-59
2023/09/03 04:32:49;;;;;;;10.47;7.97;;;;;;;;;;5020130;28;20427;-58
2023/09/03 04:35:14;;;;;;;11.63;7.47;;;;;;;;;;5023097;28;20414;-58
2023/09/03 04:37:39;;;;;;;10.35;7.40;;;;;;;;;;5024949;28;20518;-59
2023/09/03 04:40:05;;;;;;;10.80;7.93;;;;;;;;;;5021490;28;20403;-59
2023/09/03 04:42:30;;;;;;;10.13;7.53;;;;;;;;;;5021588;28;20943;-59
2023/09/03 04:44:56;;;;;;;10.77;8.00;;;;;;;;;;5024621;28;20480;-59
2023/09/03 04:47:21;;;;;;;10.30;7.73;;;;;;;;;;5023529;28;20722;-59
2023/09/03 04:49:46;;;;;;;11.87;8.40;;;;;;;;;;5019788;28;20637;-59
2023/09/03 04:52:11;;;;;;;13.63;9.20;;;;;;;;;;5022954;28;21536;-59
2023/09/03 04:54:37;;;;;;;10.37;7.83;;;;;;;;;;5024602;28;20545;-58
2023/09/03 04:57:03;;;;;;;13.57;8.60;;;;;;;;;;5021240;28;20782;-59
2023/09/03 04:59:28;;;;;;;11.98;8.45;;;;;;;;;;5021537;28;20463;-59
2023/09/03 05:01:53;;;;;;;14.97;9.60;;;;;;;;;;5024204;28;20413;-59
2023/09/03 05:04:18;;;;;;;11.40;8.23;;;;;;;;;;5023048;28;20917;-59
2023/09/03 05:06:44;;;;;;;10.77;8.43;;;;;;;;;;5019207;28;20484;-59
2023/09/03 05:09:09;;;;;;;11.90;8.00;;;;;;;;;;5023280;28;20936;-59
2023/09/03 05:11:36;;;;;;;11.48;8.35;;;;;;;;;;5024112;28;20419;-59
2023/09/03 05:14:02;;;;;;;11.27;7.77;;;;;;;;;;5018964;28;20897;-59
2023/09/03 05:16:27;;;;;;;10.20;7.60;;;;;;;;;;5018811;28;20391;-59
2023/09/03 05:18:52;;;;;;;12.80;7.95;;;;;;;;;;5024139;28;20414;-59
2023/09/03 05:21:18;;;;;;;10.73;8.00;;;;;;;;;;5020554;28;20982;-59
2023/09/03 05:23:43;;;;;;;10.57;8.10;;;;;;;;;;5020140;28;20488;-58
2023/09/03 05:26:08;;;;;;;11.43;7.70;;;;;;;;;;5023251;28;20419;-59
2023/09/03 05:28:33;;;;;;;10.27;7.57;;;;;;;;;;5023039;28;20801;-59
2023/09/03 05:30:59;;;;;;;11.40;7.97;;;;;;;;;;5019138;28;20434;-59
2023/09/03 05:33:25;;;;;;;11.45;8.23;;;;;;;;;;5023388;28;21133;-59
2023/09/03 05:35:50;;;;;;;12.20;8.90;;;;;;;;;;5022738;28;20905;-59
2023/09/03 05:38:15;;;;;;;11.43;8.73;;;;;;;;;;5019840;28;20420;-59
2023/09/03 05:40:41;;;;;;;11.50;7.90;;;;;;;;;;5021925;28;20403;-59
2023/09/03 05:43:06;;;;;;;11.07;7.93;;;;;;;;;;5021759;28;20877;-59
2023/09/03 05:45:32;;;;;;;11.25;8.13;;;;;;;;;;5021856;28;20398;-59
2023/09/03 05:47:57;;;;;;;11.33;7.70;;;;;;;;;;5020137;28;20418;-59
2023/09/03 05:50:23;;;;;;;9.37;7.47;;;;;;;;;;5022448;28;20406;-59
2023/09/03 05:52:48;;;;;;;11.70;7.40;;;;;;;;;;5023367;28;20403;-59
2023/09/03 05:55:13;;;;;;;11.85;7.90;;;;;;;;;;5017914;28;20437;-59
2023/09/03 05:57:40;;;;;;;11.50;8.00;;;;;;;;;;5023085;28;20411;-59
2023/09/03 06:00:05;;;;;;;9.75;7.82;;;;;;;;;;5023141;28;20407;-59
2023/09/03 06:02:33;;;;;;;10.47;7.33;;;;;;;;;;5020214;28;20411;-59
2023/09/03 06:04:58;;;;;;;11.57;7.35;;;;;;;;;;5021255;28;20411;-59
2023/09/03 06:07:23;;;;;;;10.10;7.10;;;;;;;;;;5022813;28;21030;-59
2023/09/03 06:09:49;;;;;;;9.67;6.60;;;;;;;;;;5021500;28;20399;-59
2023/09/03 06:12:14;;;;;;;9.13;7.07;;;;;;;;;;5018561;28;20857;-59
2023/09/03 06:14:39;;;;;;;8.97;6.80;;;;;;;;;;5023481;28;20469;-59
2023/09/03 06:17:04;;;;;;;10.17;6.77;;;;;;;;;;5022075;28;20493;-60
2023/09/03 06:19:30;;;;;;;9.98;7.18;;;;;;;;;;5019018;28;20428;-59
2023/09/03 06:21:55;;;;;;;10.05;7.50;;;;;;;;;;5022742;28;20465;-59
2023/09/03 06:24:21;;;;;;;9.50;7.53;;;;;;;;;;5024751;28;20393;-59
2023/09/03 06:26:46;;;;;;;10.93;8.13;;;;;;;;;;5032319;28;20410;-59
2023/09/03 06:29:11;;;;;;;11.03;7.73;;;;;;;;;;5030058;28;20893;-59
2023/09/03 06:31:37;;;;;;;9.73;7.93;;;;;;;;;;5030593;28;20407;-59
2023/09/03 06:34:02;;;;;;;10.67;7.70;;;;;;;;;;5030968;28;20399;-59
2023/09/03 06:36:27;;;;;;;10.17;8.33;;;;;;;;;;5033471;28;20472;-59
2023/09/03 06:38:53;;;;;;;10.93;8.50;;;;;;;;;;5037737;28;20448;-59
2023/09/03 06:41:18;;;;;;;10.75;8.63;;;;;;;;;;5038041;28;20465;-59
2023/09/03 06:43:43;;;;;;;11.95;9.00;;;;;;;;;;5034026;28;20416;-59
2023/09/03 06:46:08;;;;;;;11.50;8.90;;;;;;;;;;5033122;28;20389;-59
2023/09/03 06:48:34;;;;;;;11.03;8.67;;;;;;;;;;5027163;28;21273;-59
2023/09/03 06:50:59;;;;;;;12.00;9.40;;;;;;;;;;5032801;28;20413;-59
2023/09/03 06:53:25;;;;;;;13.20;9.77;;;;;;;;;;5030782;28;20388;-59
2023/09/03 06:55:51;;;;;;;13.85;9.80;;;;;;;;;;5033612;28;20499;-59
2023/09/03 06:58:16;;;;;;;12.80;9.77;;;;;;;;;;5027768;28;20520;-59
2023/09/03 07:00:42;;;;;;;12.73;10.10;;;;;;;;;;5021355;28;20418;-59
2023/09/03 07:03:07;;;;;;;12.93;10.65;;;;;;;;;;5026043;28;20416;-59
2023/09/03 07:05:32;;;;;;;13.57;10.27;;;;;;;;;;5026639;28;20403;-59
2023/09/03 07:07:58;;;;;;;13.17;10.30;;;;;;;;;;5022245;28;20409;-58
2023/09/03 07:10:23;;;;;;;12.90;10.30;;;;;;;;;;5024444;28;20426;-59
2023/09/03 07:12:48;;;;;;;11.80;10.20;;;;;;;;;;5025319;28;20417;-59
2023/09/03 07:15:14;;;;;;;11.97;10.40;;;;;;;;;;5023911;28;20403;-59
2023/09/03 07:17:39;;;;;;;12.97;10.23;;;;;;;;;;5022880;28;20414;-59
2023/09/03 07:20:04;;;;;;;13.73;10.90;;;;;;;;;;5026100;28;20770;-59
2023/09/03 07:22:30;;;;;;;12.07;10.50;;;;;;;;;;5046442;28;20476;-59
2023/09/03 07:24:55;;;;;;;14.00;10.00;;;;;;;;;;5040625;28;20424;-59
2023/09/03 07:27:20;;;;;;;12.90;10.80;;;;;;;;;;5045065;28;20497;-59
2023/09/03 07:29:46;;;;;;;14.07;9.97;;;;;;;;;;5046051;28;20890;-59
2023/09/03 07:32:11;;;;;;;14.00;10.43;;;;;;;;;;5041685;28;20413;-58
2023/09/03 07:34:36;;;;;;;12.23;9.80;;;;;;;;;;5043795;28;21022;-59
2023/09/03 07:37:01;;;;;;;12.47;9.47;;;;;;;;;;5045563;28;20436;-59
2023/09/03 07:39:27;;;;;;;11.33;9.40;;;;;;;;;;5044623;28;20390;-59
2023/09/03 07:41:56;;;;;;;11.33;8.93;;;;;;;;;;5041076;28;20517;-59
2023/09/03 07:44:21;;;;;;;13.30;9.38;;;;;;;;;;5040209;28;20407;-59
2023/09/03 07:46:47;;;;;;;11.47;9.00;;;;;;;;;;5044792;28;20428;-59
2023/09/03 07:49:12;;;;;;;11.17;8.30;;;;;;;;;;5039883;28;20432;-59
2023/09/03 07:51:38;;;;;;;12.00;8.50;;;;;;;;;;5045078;28;20426;-59
2023/09/03 07:54:03;;;;;;;10.73;8.30;;;;;;;;;;5044982;28;20410;-59
2023/09/03 07:56:30;;;;;;;11.03;7.70;;;;;;;;;;5042390;28;20459;-59
2023/09/03 07:58:55;;;;;;;9.65;7.88;;;;;;;;;;5042543;28;20413;-59
2023/09/03 08:01:20;;;;;;;11.63;7.87;;;;;;;;;;5045156;28;20413;-59
2023/09/03 08:03:46;;;;;;;10.27;7.70;;;;;;;;;;5044386;28;20400;-59
2023/09/03 08:06:13;;;;;;;10.47;7.97;;;;;;;;;;5040213;28;20969;-59
2023/09/03 08:08:38;;;;;;;9.02;7.53;;;;;;;;;;5045350;28;20401;-58
2023/09/03 08:11:04;;;;;;;9.00;7.27;;;;;;;;;;5043835;28;20424;-59
2023/09/03 08:13:29;;;;;;;11.00;7.83;;;;;;;;;;5041361;28;20460;-59
2023/09/03 08:15:54;;;;;;;9.97;7.17;;;;;;;;;;5043880;28;20886;-59
2023/09/03 08:18:20;;;;;;;9.53;7.70;;;;;;;;;;5043855;28;20397;-59
2023/09/03 08:20:45;;;;;;;9.35;7.63;;;;;;;;;;5042445;28;20828;-59
2023/09/03 08:23:11;;;;;;;9.90;6.90;;;;;;;;;;5040747;28;20423;-59
2023/09/03 08:25:36;;;;;;;8.20;6.87;;;;;;;;;;5043926;28;20480;-59
2023/09/03 08:28:02;;;;;;;8.97;6.93;;;;;;;;;;5044662;28;20439;-59
2023/09/03 08:30:27;;;;;;;9.37;7.30;;;;;;;;;;5038727;28;20420;-59
2023/09/03 08:32:52;;;;;;;8.63;7.67;;;;;;;;;;5044990;28;20425;-59
2023/09/03 08:35:17;;;;;;;9.53;7.43;;;;;;;;;;5044474;28;20884;-59
2023/09/03 08:37:43;;;;;;;8.90;7.00;;;;;;;;;;5040641;28;20468;-59
2023/09/03 08:40:08;;;;;;;8.30;6.70;;;;;;;;;;5042578;28;20819;-59
2023/09/03 08:42:34;;;;;;;7.53;5.80;;;;;;;;;;5042938;28;20431;-59
2023/09/03 08:45:01;;;;;;;8.63;5.80;;;;;;;;;;5036664;28;20431;-59
2023/09/03 08:47:27;;;;;;;8.88;6.38;;;;;;;;;;5038244;28;20390;-59
2023/09/03 08:49:53;;;;;;;7.33;5.33;;;;;;;;;;5044667;28;20420;-59
2023/09/03 08:52:18;;;;;;;7.68;4.90;;;;;;;;;;5043009;28;20463;-59
2023/09/03 08:54:44;;;;;;;6.43;4.60;;;;;;;;;;5033278;28;20416;-59
2023/09/03 08:57:09;;;;;;;6.47;4.70;;;;;;;;;;5032943;28;20397;-59
2023/09/03 08:59:34;;;;;;;6.03;4.63;;;;;;;;;;5029310;28;20917;-59
2023/09/03 09:02:00;;;;;;;6.60;4.10;;;;;;;;;;5021951;28;20495;-59
2023/09/03 09:04:27;;;;;;;5.77;4.33;;;;;;;;;;5021158;28;20511;-59
2023/09/03 09:06:52;;;;;;;5.07;3.80;;;;;;;;;;5022764;28;20399;-59
2023/09/03 09:09:17;;;;;;;7.00;4.00;;;;;;;;;;5031714;28;20412;-59
2023/09/03 09:11:45;;;;;;;6.17;4.33;;;;;;;;;;5017885;28;20777;-59
2023/09/03 09:14:14;;;;;;;6.97;4.47;;;;;;;;;;5029690;28;20955;-59
2023/09/03 09:16:39;;;;;;;6.68;4.60;;;;;;;;;;5022510;28;20680;-59
2023/09/03 09:19:04;;;;;;;6.87;4.20;;;;;;;;;;5028523;28;20407;-59
2023/09/03 09:21:30;;;;;;;6.00;4.10;;;;;;;;;;5021527;28;20418;-59
2023/09/03 09:24:00;;;;;;;5.47;3.97;;;;;;;;;;5022927;28;20415;-59
2023/09/03 09:26:25;;;;;;;5.80;4.05;;;;;;;;;;5021811;28;20906;-59
2023/09/03 09:28:57;;;;;;;5.97;3.60;;;;;;;;;;5017561;28;20545;-59
2023/09/03 09:31:28;;;;;;;6.43;3.80;;;;;;;;;;5020413;28;20392;-59
2023/09/03 09:33:54;;;;;;;5.38;3.65;;;;;;;;;;4991610;28;20422;-59
2023/09/03 09:36:19;;;;;;;5.50;3.45;;;;;;;;;;4997384;28;20431;-59
2023/09/03 09:38:45;;;;;;;5.67;4.37;;;;;;;;;;5006614;28;20413;-59
2023/09/03 09:41:20;;;;;;;6.40;3.93;;;;;;;;;;5005666;28;20920;-59
2023/09/03 09:43:46;;;;;;;6.30;4.13;;;;;;;;;;5008409;28;20415;-59
2023/09/03 09:46:23;;;;;;;5.53;3.80;;;;;;;;;;5007001;28;20403;-59
2023/09/03 09:48:53;;;;;;;4.03;3.40;;;;;;;;;;5011615;28;20403;-59
2023/09/03 09:51:19;;;;;;;5.43;3.58;;;;;;;;;;5008080;28;20857;-59
2023/09/03 09:53:44;;;;;;;4.67;3.90;;;;;;;;;;5011180;28;20399;-59
2023/09/03 09:56:12;;;;;;;5.30;3.43;;;;;;;;;;5003905;28;20412;-59
2023/09/03 09:58:38;;;;;;;4.82;3.35;;;;;;;;;;4985074;28;20580;-59
2023/09/03 10:01:03;;;;;;;4.85;3.42;;;;;;;;;;4985566;28;20884;-59
2023/09/03 10:03:42;;;;;;;5.50;3.20;;;;;;;;;;4994798;28;20478;-59
2023/09/03 10:06:07;;;;;;;4.95;3.47;;;;;;;;;;4994082;28;20944;-59
2023/09/03 10:08:32;;;;;;;5.57;3.60;;;;;;;;;;5003173;28;20400;-59
2023/09/03 10:10:58;;;;;;;3.67;2.80;;;;;;;;;;4996723;28;20415;-59
2023/09/03 10:13:23;;;;;;;4.07;2.60;;;;;;;;;;4991094;28;20390;-59
2023/09/03 10:15:48;;;;;;;4.50;2.40;;;;;;;;;;4993509;28;20426;-59
2023/09/03 10:18:13;;;;;;;4.83;2.90;;;;;;;;;;4989689;28;20767;-59
2023/09/03 10:20:39;;;;;;;4.53;2.90;;;;;;;;;;4984378;28;20412;-59
2023/09/03 10:23:04;;;;;;;4.83;2.90;;;;;;;;;;4983571;28;20406;-59
2023/09/03 10:25:30;;;;;;;4.35;2.50;;;;;;;;;;4993191;28;20433;-59
2023/09/03 10:27:57;;;;;;;4.07;2.43;;;;;;;;;;4991724;28;20498;-59
2023/09/03 10:30:23;;;;;;;4.97;3.00;;;;;;;;;;4992241;28;20485;-59
2023/09/03 10:32:50;;;;;;;4.43;2.90;;;;;;;;;;5002213;28;20409;-59
2023/09/03 10:35:15;;;;;;;4.63;3.05;;;;;;;;;;4998349;28;20418;-59
2023/09/03 10:37:41;;;;;;;5.00;2.80;;;;;;;;;;5006835;28;20439;-59
2023/09/03 10:40:17;;;;;;;5.50;3.10;;;;;;;;;;5000753;28;20418;-59
2023/09/03 10:42:43;;;;;;;4.47;2.50;;;;;;;;;;5002754;28;20411;-59
2023/09/03 10:45:11;;;;;;;4.57;3.05;;;;;;;;;;5006630;28;20405;-59
2023/09/03 10:47:55;;;;;;;4.23;3.00;;;;;;;;;;5000357;28;20827;-59
2023/09/03 10:50:39;;;;;;;4.17;2.80;;;;;;;;;;5011277;28;20385;-59
2023/09/03 10:53:05;;;;;;;4.82;2.90;;;;;;;;;;5014430;28;20512;-59
2023/09/03 10:55:30;;;;;;;4.97;3.10;;;;;;;;;;5012742;28;20474;-59
2023/09/03 10:58:16;;;;;;;5.73;3.57;;;;;;;;;;5010764;28;20455;-59
2023/09/03 11:00:57;;;;;;;5.10;3.00;;;;;;;;;;4992310;28;20487;-59
2023/09/03 11:03:24;;;;;;;5.53;3.47;;;;;;;;;;4993589;28;20872;-59
2023/09/03 11:06:10;;;;;;;5.10;3.38;;;;;;;;;;4985189;28;20402;-59
2023/09/03 11:08:37;;;;;;;5.25;3.58;;;;;;;;;;4984011;28;20517;-59
2023/09/03 11:11:02;;;;;;;4.47;3.10;;;;;;;;;;4989417;28;20413;-59
2023/09/03 11:13:28;;;;;;;5.63;3.17;;;;;;;;;;4992884;28;20442;-59
2023/09/03 11:15:59;;;;;;;2.33;1.47;;;;;;;;;;4996726;28;20763;-59
2023/09/03 11:18:26;;;;;;;2.80;1.70;;;;;;;;;;4991242;28;20418;-59
2023/09/03 11:20:51;;;;;;;3.15;1.90;;;;;;;;;;4995352;28;20486;-59
2023/09/03 11:23:17;;;;;;;3.20;1.70;;;;;;;;;;4994595;28;20439;-59
2023/09/03 11:25:42;;;;;;;4.60;2.50;;;;;;;;;;5009064;28;20409;-59
2023/09/03 11:28:11;;;;;;;5.97;2.50;;;;;;;;;;4996768;28;20420;-59
2023/09/03 11:30:36;;;;;;;3.47;2.38;;;;;;;;;;5003949;28;20412;-58
2023/09/03 11:33:02;;;;;;;4.33;2.40;;;;;;;;;;5000186;28;20423;-59
2023/09/03 11:35:27;;;;;;;3.88;2.10;;;;;;;;;;5006643;28;20393;-59
2023/09/03 11:37:53;;;;;;;3.50;2.00;;;;;;;;;;5023905;28;20415;-58
2023/09/03 11:40:18;;;;;;;4.03;1.80;;;;;;;;;;5004724;28;20413;-59
2023/09/03 11:42:44;;;;;;;4.57;1.93;;;;;;;;;;5011373;28;20831;-58
2023/09/03 11:45:11;;;;;;;2.17;1.17;;;;;;;;;;4995364;28;20488;-59
2023/09/03 11:47:40;;;;;;;2.00;0.90;;;;;;;;;;4996138;28;20443;-59
2023/09/03 11:50:09;;;;;;;1.73;0.90;;;;;;;;;;4989037;28;20642;-59
2023/09/03 11:52:34;;;;;;;2.08;0.90;;;;;;;;;;4987514;28;20893;-59
2023/09/03 11:54:59;;;;;;;2.40;1.07;;;;;;;;;;4994225;28;20417;-59
2023/09/03 11:57:25;;;;;;;2.30;1.20;;;;;;;;;;4992042;28;20408;-58
2023/09/03 11:59:50;;;;;;;2.20;1.00;;;;;;;;;;4995521;28;20914;-59
2023/09/03 12:02:15;;;;;;;3.00;1.20;;;;;;;;;;5000929;28;20411;-59
2023/09/03 12:04:40;;;;;;;2.53;1.10;;;;;;;;;;4995640;28;20436;-58
2023/09/03 12:07:13;;;;;;;1.70;1.00;;;;;;;;;;4995013;28;20964;-59
2023/09/03 12:09:39;;;;;;;3.33;1.20;;;;;;;;;;4996048;28;20422;-59
2023/09/03 12:12:04;;;;;;;3.80;1.50;;;;;;;;;;4994464;28;20415;-59
2023/09/03 12:14:30;;;;;;;2.40;0.90;;;;;;;;;;4985714;28;20920;-58
2023/09/03 12:16:56;;;;;;;2.77;0.80;;;;;;;;;;4986763;28;20398;-59
2023/09/03 12:19:21;;;;;;;1.45;0.90;;;;;;;;;;4995440;28;20398;-58
2023/09/03 12:21:49;;;;;;;3.40;1.10;;;;;;;;;;4996923;28;20414;-59
2023/09/03 12:24:15;;;;;;;2.00;0.90;;;;;;;;;;4992774;28;20410;-59
2023/09/03 12:26:40;;;;;;;2.47;1.00;;;;;;;;;;5001934;28;20394;-59
2023/09/03 12:29:18;;;;;;;1.73;0.75;;;;;;;;;;5003574;28;20419;-59
2023/09/03 12:31:44;;;;;;;3.65;1.10;;;;;;;;;;4993782;28;20410;-59
2023/09/03 12:34:09;;;;;;;1.92;0.98;;;;;;;;;;4998224;28;21074;-59
2023/09/03 12:36:45;;;;;;;2.70;1.05;;;;;;;;;;5001205;28;20413;-59
2023/09/03 12:39:10;;;;;;;1.85;1.10;;;;;;;;;;4995635;28;20460;-59
2023/09/03 12:41:37;;;;;;;2.97;1.40;;;;;;;;;;5009060;28;20407;-58
2023/09/03 12:44:04;;;;;;;2.50;1.20;;;;;;;;;;4993724;28;20426;-59
2023/09/03 12:46:29;;;;;;;3.42;1.40;;;;;;;;;;4993441;28;20450;-59
2023/09/03 12:48:54;;;;;;;2.30;1.10;;;;;;;;;;4996721;28;20407;-59
2023/09/03 12:51:20;;;;;;;2.93;1.40;;;;;;;;;;4995116;28;20882;-59
2023/09/03 12:53:47;;;;;;;2.70;1.00;;;;;;;;;;4993621;28;20411;-59
2023/09/03 12:56:12;;;;;;;2.58;1.30;;;;;;;;;;4993907;28;20410;-59
2023/09/03 12:58:38;;;;;;;2.97;1.03;;;;;;;;;;4990796;28;20438;-59
2023/09/03 13:01:03;;;;;;;3.97;1.50;;;;;;;;;;4989388;28;20485;-59
2023/09/03 13:03:28;;;;;;;2.63;1.03;;;;;;;;;;5029434;28;20394;-58
2023/09/03 13:05:54;;;;;;;1.97;1.10;;;;;;;;;;5032340;28;20429;-58
2023/09/03 13:08:19;;;;;;;2.90;1.40;;;;;;;;;;5020412;28;20508;-58
2023/09/03 13:10:44;;;;;;;3.47;1.00;;;;;;;;;;5002696;28;20422;-58
2023/09/03 13:13:11;;;;;;;1.90;0.93;;;;;;;;;;4997430;28;20437;-59
2023/09/03 13:15:37;;;;;;;1.90;1.00;;;;;;;;;;4997242;28;20400;-59
2023/09/03 13:18:02;;;;;;;1.83;0.93;;;;;;;;;;4992207;28;20477;-59
2023/09/03 13:20:28;;;;;;;2.33;1.07;;;;;;;;;;4991133;28;20439;-59
2023/09/03 13:22:53;;;;;;;1.90;1.10;;;;;;;;;;4996969;28;20433;-59
2023/09/03 13:25:18;;;;;;;2.67;1.10;;;;;;;;;;4991726;28;20932;-59
2023/09/03 13:27:44;;;;;;;2.90;0.90;;;;;;;;;;4985626;28;20514;-59
2023/09/03 13:30:10;;;;;;;1.77;1.00;;;;;;;;;;4986404;28;20482;-59
2023/09/03 13:32:35;;;;;;;2.90;0.90;;;;;;;;;;4988130;28;20411;-59
2023/09/03 13:35:00;;;;;;;1.53;0.90;;;;;;;;;;4991400;28;20416;-60
2023/09/03 13:37:26;;;;;;;1.93;0.90;;;;;;;;;;4994221;28;20541;-59
2023/09/03 13:39:51;;;;;;;1.30;0.80;;;;;;;;;;5011347;28;20832;-59
2023/09/03 13:42:16;;;;;;;1.63;1.00;;;;;;;;;;5015980;28;20408;-59
2023/09/03 13:44:42;;;;;;;1.57;0.90;;;;;;;;;;5007301;28;20470;-59
2023/09/03 13:47:07;;;;;;;2.87;1.00;;;;;;;;;;5015597;28;20509;-59
2023/09/03 13:49:32;;;;;;;2.53;0.97;;;;;;;;;;4999743;28;20404;-59
2023/09/03 13:51:58;;;;;;;1.70;0.90;;;;;;;;;;4987868;28;20525;-59
2023/09/03 13:54:23;;;;;;;1.93;0.90;;;;;;;;;;4985668;28;20833;-59
2023/09/03 13:56:48;;;;;;;2.30;0.90;;;;;;;;;;4992667;28;20529;-59
2023/09/03 13:59:13;;;;;;;1.63;0.80;;;;;;;;;;4992884;28;20897;-59
2023/09/03 14:01:39;;;;;;;1.83;0.80;;;;;;;;;;4991944;28;20400;-59
2023/09/03 14:04:04;;;;;;;1.50;0.70;;;;;;;;;;4998064;28;20416;-59
2023/09/03 14:06:30;;;;;;;3.10;1.10;;;;;;;;;;4992488;28;20420;-59
2023/09/03 14:08:56;;;;;;;2.30;0.83;;;;;;;;;;4991969;28;20853;-59
2023/09/03 14:11:22;;;;;;;1.55;0.85;;;;;;;;;;4992379;28;21213;-59
2023/09/03 14:13:48;;;;;;;1.63;1.03;;;;;;;;;;4986447;28;20459;-59
2023/09/03 14:16:14;;;;;;;2.00;0.90;;;;;;;;;;4983927;28;20445;-59
2023/09/03 14:18:39;;;;;;;1.77;0.80;;;;;;;;;;4988117;28;20399;-59
2023/09/03 14:21:05;;;;;;;2.47;1.00;;;;;;;;;;4995437;28;20485;-59
2023/09/03 14:23:30;;;;;;;2.67;0.80;;;;;;;;;;4992255;28;20413;-59
2023/09/03 14:25:56;;;;;;;1.50;0.83;;;;;;;;;;4985382;28;20399;-59
2023/09/03 14:28:21;;;;;;;2.33;0.77;;;;;;;;;;4989799;28;20867;-59
2023/09/03 14:30:46;;;;;;;2.13;0.80;;;;;;;;;;4991444;28;20421;-59
2023/09/03 14:33:12;;;;;;;1.33;0.80;;;;;;;;;;4994915;28;20423;-59